Time;durP1;ratioP1;P1;durP2;ratioP2;P2;SDS_P1;SDS_P2;PMS_P1;PMS_P2;Temp;Humidity;BMP_temperature;BMP_pressure;BME280_temperature;BME280_humidity;BME280_pressure;Samples;Min_cycle;Max_cycle;Signal;HPM_P1;HPM_P2
2022/01/17 00:01:24;;;;;;;8.68;6.50;;;2.60;99.90;;;;;;5006889;28;20218;-68
2022/01/17 00:03:51;;;;;;;7.63;6.53;;;2.60;99.90;;;;;;5006100;28;20238;-68
2022/01/17 00:06:18;;;;;;;8.48;6.20;;;2.60;99.90;;;;;;5007073;28;20214;-70
2022/01/17 00:08:46;;;;;;;9.20;6.20;;;2.60;99.90;;;;;;5006824;28;20258;-69
2022/01/17 00:11:14;;;;;;;10.88;6.85;;;2.60;99.90;;;;;;5006680;28;20211;-68
2022/01/17 00:13:41;;;;;;;8.48;6.80;;;2.50;99.90;;;;;;5006805;28;20225;-68
2022/01/17 00:16:12;;;;;;;9.98;6.65;;;2.50;99.90;;;;;;5007040;28;20780;-69
2022/01/17 00:19:06;;;;;;;9.57;7.00;;;2.60;99.90;;;;;;5006872;28;20206;-69
2022/01/17 00:21:32;;;;;;;9.23;6.72;;;2.50;99.90;;;;;;5010165;28;20207;-69
2022/01/17 00:24:00;;;;;;;9.13;7.00;;;2.50;99.90;;;;;;5010102;28;20600;-69
2022/01/17 00:26:28;;;;;;;8.60;6.20;;;2.50;99.90;;;;;;5010119;28;20682;-68
2022/01/17 00:28:54;;;;;;;9.75;6.57;;;2.50;99.90;;;;;;5010078;28;20207;-68
2022/01/17 00:31:21;;;;;;;8.82;6.53;;;2.50;99.90;;;;;;5009842;28;20325;-68
2022/01/17 00:33:48;;;;;;;8.10;6.28;;;2.50;99.90;;;;;;5009066;28;20232;-68
2022/01/17 00:36:14;;;;;;;8.98;6.65;;;2.60;99.90;;;;;;5010145;28;20213;-69
2022/01/17 00:38:41;;;;;;;9.57;6.47;;;2.60;99.90;;;;;;5010113;28;20264;-69
2022/01/17 00:41:09;;;;;;;9.75;6.68;;;2.60;99.90;;;;;;5010083;28;20213;-69
2022/01/17 00:43:36;;;;;;;9.82;7.00;;;2.60;99.90;;;;;;5009731;28;20226;-69
2022/01/17 00:46:03;;;;;;;10.63;6.60;;;2.60;99.90;;;;;;5009528;28;20221;-68
2022/01/17 00:48:30;;;;;;;8.18;5.97;;;2.70;99.90;;;;;;5010317;28;20210;-69
2022/01/17 00:50:56;;;;;;;7.93;5.82;;;2.70;99.90;;;;;;5009617;28;20222;-69
2022/01/17 00:53:23;;;;;;;9.73;6.50;;;2.80;99.90;;;;;;5009675;28;20202;-69
2022/01/17 00:55:50;;;;;;;7.30;5.95;;;2.80;99.90;;;;;;5009910;28;20725;-68
2022/01/17 00:58:18;;;;;;;11.13;7.32;;;2.80;99.90;;;;;;5009790;28;20211;-68
2022/01/17 01:00:45;;;;;;;9.93;6.72;;;2.80;99.90;;;;;;5010379;28;20214;-69
2022/01/17 01:03:12;;;;;;;8.30;6.22;;;2.80;99.90;;;;;;5009891;28;20225;-69
2022/01/17 01:05:39;;;;;;;7.63;6.80;;;2.80;99.90;;;;;;5010251;28;20225;-69
2022/01/17 01:08:06;;;;;;;7.65;6.63;;;2.80;99.90;;;;;;5010828;28;20209;-68
2022/01/17 01:10:33;;;;;;;8.48;6.63;;;2.80;99.90;;;;;;5009701;28;20214;-69
2022/01/17 01:13:00;;;;;;;9.73;6.40;;;2.80;99.90;;;;;;5081211;22;20765;-73
2022/01/17 01:15:47;;;;;;;9.00;6.80;;;2.80;99.90;;;;;;4989847;28;20217;-69
2022/01/17 01:18:17;;;;;;;8.18;6.30;;;2.80;99.90;;;;;;4990553;28;20229;-68
2022/01/17 01:21:26;;;;;;;8.23;5.38;;;2.90;99.90;;;;;;4989657;28;20570;-69
2022/01/17 01:29:32;;;;;;;7.20;6.05;;;2.80;99.90;;;;;;4988669;28;20330;-69
2022/01/17 01:32:02;;;;;;;7.65;6.57;;;2.80;99.90;;;;;;4988662;28;20199;-68
2022/01/17 01:34:34;;;;;;;7.68;5.07;;;2.90;99.90;;;;;;4988595;28;20223;-69
2022/01/17 01:37:02;;;;;;;9.88;6.15;;;2.80;99.90;;;;;;4989287;28;20230;-69
2022/01/17 01:39:29;;;;;;;5.93;5.15;;;2.80;99.90;;;;;;4988933;28;20215;-69
2022/01/17 01:41:56;;;;;;;7.03;5.97;;;2.70;99.90;;;;;;4989187;28;20207;-69
2022/01/17 01:44:24;;;;;;;8.15;5.40;;;2.70;99.90;;;;;;4988272;28;20226;-69
2022/01/17 01:46:53;;;;;;;7.00;5.57;;;2.70;99.90;;;;;;4989218;28;20214;-68
2022/01/17 01:49:22;;;;;;;6.35;5.65;;;2.70;99.90;;;;;;4989527;28;20211;-68
2022/01/17 01:51:49;;;;;;;7.65;5.95;;;2.70;99.90;;;;;;4988703;28;20582;-69
2022/01/17 01:54:18;;;;;;;7.47;6.40;;;2.70;99.90;;;;;;4988527;28;20223;-69
2022/01/17 01:56:46;;;;;;;8.25;6.00;;;2.70;99.90;;;;;;4988610;28;20723;-69
2022/01/17 01:59:16;;;;;;;8.00;5.90;;;2.70;99.90;;;;;;4989042;28;20207;-69
2022/01/17 02:01:43;;;;;;;7.82;6.30;;;2.70;99.90;;;;;;4988807;28;20312;-69
2022/01/17 02:04:10;;;;;;;9.32;6.88;;;2.70;99.90;;;;;;4988254;28;20238;-69
2022/01/17 02:06:38;;;;;;;9.70;7.22;;;2.70;99.90;;;;;;4988714;28;20376;-69
2022/01/17 02:09:05;;;;;;;8.88;6.13;;;2.70;99.90;;;;;;4988135;28;20659;-69
2022/01/17 02:11:33;;;;;;;8.27;6.57;;;2.70;99.90;;;;;;4988513;28;20209;-68
2022/01/17 02:13:59;;;;;;;7.95;5.93;;;2.60;99.90;;;;;;4987743;28;20231;-69
2022/01/17 02:16:27;;;;;;;6.63;4.78;;;2.60;99.90;;;;;;4988711;28;20203;-69
2022/01/17 02:18:53;;;;;;;7.20;5.20;;;2.50;99.90;;;;;;4989055;28;20214;-68
2022/01/17 02:21:32;;;;;;;5.53;4.47;;;2.50;99.90;;;;;;4988640;28;20199;-69
2022/01/17 02:24:00;;;;;;;7.35;5.10;;;2.40;99.90;;;;;;4987936;28;20231;-70
2022/01/17 02:26:29;;;;;;;5.35;4.50;;;2.40;99.90;;;;;;4987954;28;20206;-70
2022/01/17 02:28:57;;;;;;;8.05;5.40;;;2.30;99.90;;;;;;4988863;28;20202;-70
2022/01/17 02:31:25;;;;;;;6.03;4.90;;;2.40;99.90;;;;;;4988438;28;20564;-69
2022/01/17 02:33:53;;;;;;;7.68;6.15;;;2.40;99.90;;;;;;4987924;28;20227;-70
2022/01/17 02:36:21;;;;;;;7.32;5.63;;;2.30;99.90;;;;;;4988005;28;20203;-70
2022/01/17 02:38:48;;;;;;;7.53;5.88;;;2.30;99.90;;;;;;4986460;28;20469;-70
2022/01/17 02:41:15;;;;;;;7.53;5.95;;;2.40;99.90;;;;;;4987190;28;20225;-69
2022/01/17 02:43:45;;;;;;;10.50;6.70;;;2.40;99.90;;;;;;4987098;28;20210;-70
2022/01/17 02:46:27;;;;;;;8.65;6.10;;;2.40;99.90;;;;;;4986981;28;20298;-69
2022/01/17 02:48:54;;;;;;;10.30;7.00;;;2.40;99.90;;;;;;4987552;28;20206;-69
2022/01/17 02:51:22;;;;;;;7.78;6.50;;;2.50;99.90;;;;;;4988330;28;20211;-69
2022/01/17 02:53:49;;;;;;;9.90;7.35;;;2.50;99.90;;;;;;4989114;28;20273;-69
2022/01/17 02:56:16;;;;;;;8.45;6.85;;;2.50;99.90;;;;;;4990052;28;20612;-70
2022/01/17 02:58:43;;;;;;;10.30;7.18;;;2.50;99.90;;;;;;4988505;28;20202;-69
2022/01/17 03:01:15;;;;;;;7.97;5.70;;;2.50;99.90;;;;;;4989141;28;20206;-70
2022/01/17 03:03:42;;;;;;;8.45;6.57;;;2.50;99.90;;;;;;4989305;28;20203;-69
2022/01/17 03:06:09;;;;;;;9.98;7.47;;;2.50;99.90;;;;;;4988953;28;20714;-69
2022/01/17 03:08:38;;;;;;;8.73;6.53;;;2.50;99.90;;;;;;4988126;28;20211;-69
2022/01/17 03:11:07;;;;;;;10.65;7.30;;;2.60;99.90;;;;;;4988102;28;20207;-69
2022/01/17 03:13:37;;;;;;;7.82;6.40;;;2.60;99.90;;;;;;4987041;28;20705;-70
2022/01/17 03:16:09;;;;;;;7.20;5.50;;;2.60;99.90;;;;;;4987781;28;20613;-70
2022/01/17 03:18:40;;;;;;;8.15;6.60;;;2.60;99.90;;;;;;4987808;28;20325;-71
2022/01/17 03:21:07;;;;;;;10.43;6.63;;;2.70;99.90;;;;;;4991355;28;20203;-71
2022/01/17 03:23:35;;;;;;;6.85;6.03;;;2.60;99.90;;;;;;4989675;28;20245;-71
2022/01/17 03:26:03;;;;;;;9.80;6.53;;;2.60;99.90;;;;;;4991335;28;20223;-69
2022/01/17 03:28:30;;;;;;;7.82;5.78;;;2.60;99.90;;;;;;4991777;28;20575;-69
2022/01/17 03:30:57;;;;;;;9.32;6.72;;;2.60;99.90;;;;;;4991846;28;20199;-69
2022/01/17 03:33:24;;;;;;;9.13;6.40;;;2.60;99.90;;;;;;4990967;28;20218;-68
2022/01/17 03:35:51;;;;;;;7.25;6.00;;;2.60;99.90;;;;;;4991650;28;20219;-68
2022/01/17 03:38:20;;;;;;;9.38;6.75;;;2.60;99.90;;;;;;4991651;28;20210;-68
2022/01/17 03:40:50;;;;;;;8.70;6.72;;;2.60;99.90;;;;;;4991550;28;20214;-68
2022/01/17 03:43:19;;;;;;;8.48;6.40;;;2.60;99.90;;;;;;4990888;28;20338;-69
2022/01/17 03:45:47;;;;;;;9.95;7.15;;;2.60;99.90;;;;;;4991510;28;20227;-69
2022/01/17 03:48:14;;;;;;;11.13;6.68;;;2.60;99.90;;;;;;4991127;28;20289;-68
2022/01/17 03:50:42;;;;;;;6.82;5.78;;;2.60;99.90;;;;;;4991826;28;20207;-68
2022/01/17 03:53:08;;;;;;;10.75;7.22;;;2.60;99.90;;;;;;4990818;28;20207;-68
2022/01/17 03:55:36;;;;;;;9.90;6.40;;;2.60;99.90;;;;;;4995681;28;20742;-69
2022/01/17 03:58:03;;;;;;;8.90;6.57;;;2.70;99.90;;;;;;4995411;28;20569;-69
2022/01/17 04:00:33;;;;;;;8.32;6.22;;;2.70;99.90;;;;;;4995406;28;20203;-69
2022/01/17 04:03:00;;;;;;;8.05;6.28;;;2.70;99.90;;;;;;4994971;28;20218;-69
2022/01/17 04:05:28;;;;;;;6.70;5.55;;;2.70;99.90;;;;;;4993731;28;20715;-68
2022/01/17 04:07:54;;;;;;;6.78;5.82;;;2.70;99.90;;;;;;4991224;28;20581;-70
2022/01/17 04:10:21;;;;;;;8.88;5.97;;;2.70;99.90;;;;;;4993232;28;20203;-69
2022/01/17 04:12:48;;;;;;;7.47;5.93;;;2.80;99.90;;;;;;4993571;28;20203;-68
2022/01/17 04:15:15;;;;;;;7.63;6.10;;;2.80;99.90;;;;;;4993915;28;20227;-69
2022/01/17 04:17:43;;;;;;;7.18;6.30;;;2.80;99.90;;;;;;4993504;28;20295;-69
2022/01/17 04:20:15;;;;;;;7.03;6.25;;;2.80;99.90;;;;;;4990440;28;20222;-69
2022/01/17 04:22:49;;;;;;;8.18;5.93;;;2.80;99.90;;;;;;4993622;28;20613;-70
2022/01/17 04:25:16;;;;;;;7.80;5.97;;;2.80;99.90;;;;;;4993468;28;20227;-70
2022/01/17 04:27:42;;;;;;;8.38;6.60;;;2.80;99.90;;;;;;4993691;28;20210;-69
2022/01/17 04:30:10;;;;;;;9.13;5.88;;;2.80;99.90;;;;;;4993662;28;20227;-69
2022/01/17 04:32:36;;;;;;;7.80;6.43;;;2.80;99.90;;;;;;4993794;28;20204;-69
2022/01/17 04:35:05;;;;;;;7.20;5.97;;;2.80;99.90;;;;;;4993535;28;20222;-69
2022/01/17 04:37:32;;;;;;;9.05;5.63;;;2.70;99.90;;;;;;4993801;28;20199;-70
2022/01/17 04:39:59;;;;;;;8.63;5.60;;;2.70;99.90;;;;;;4993082;28;20203;-70
2022/01/17 04:42:28;;;;;;;7.60;6.05;;;2.70;99.90;;;;;;4992843;28;21013;-69
2022/01/17 04:45:13;;;;;;;6.90;6.07;;;2.70;99.90;;;;;;4993118;28;20594;-70
2022/01/17 04:47:42;;;;;;;11.10;5.72;;;2.70;99.90;;;;;;4993870;28;20272;-69
2022/01/17 04:50:13;;;;;;;10.23;6.47;;;2.70;99.90;;;;;;4993105;28;20206;-70
2022/01/17 04:52:40;;;;;;;8.05;6.05;;;2.70;99.90;;;;;;4992920;28;20210;-69
2022/01/17 04:55:09;;;;;;;8.77;6.05;;;2.70;99.90;;;;;;4992978;28;20222;-69
2022/01/17 04:57:36;;;;;;;9.20;6.90;;;2.70;99.90;;;;;;4991977;28;20245;-72
2022/01/17 05:00:05;;;;;;;8.82;6.43;;;2.70;99.90;;;;;;4990557;28;20298;-70
2022/01/17 05:02:31;;;;;;;9.05;6.70;;;2.70;99.90;;;;;;4992014;28;20555;-71
2022/01/17 05:04:58;;;;;;;6.68;5.50;;;2.70;99.90;;;;;;4991788;28;20242;-71
2022/01/17 05:10:03;;;;;;;8.57;6.65;;;2.60;99.90;;;;;;4785727;22;20244;-76
2022/01/17 05:12:30;;;;;;;11.77;7.10;;;2.70;99.90;;;;;;5032072;28;20209;-77
2022/01/17 05:14:58;;;;;;;11.15;6.90;;;2.60;99.90;;;;;;5013837;28;20638;-75
2022/01/17 05:17:39;;;;;;;9.80;6.47;;;2.70;99.90;;;;;;5009664;28;20849;-75
2022/01/17 05:20:08;;;;;;;7.85;5.97;;;2.70;99.90;;;;;;5009418;28;20213;-74
2022/01/17 05:22:36;;;;;;;8.95;6.70;;;2.60;99.90;;;;;;5009022;28;20264;-75
2022/01/17 05:25:07;;;;;;;5.95;4.97;;;2.70;99.90;;;;;;5010501;28;20214;-75
2022/01/17 05:27:36;;;;;;;7.80;6.35;;;2.70;99.90;;;;;;5012207;28;20227;-75
2022/01/17 05:30:04;;;;;;;11.15;7.45;;;2.70;99.90;;;;;;5012065;28;20230;-75
2022/01/17 05:32:30;;;;;;;9.00;6.20;;;2.70;99.90;;;;;;5013276;28;20206;-77
2022/01/17 05:34:57;;;;;;;8.55;6.03;;;2.70;99.90;;;;;;5017245;28;20217;-76
2022/01/17 05:37:24;;;;;;;9.13;5.85;;;2.70;99.90;;;;;;5032396;28;20574;-78
2022/01/17 05:39:50;;;;;;;8.00;5.80;;;2.70;99.90;;;;;;5015257;28;20198;-76
2022/01/17 05:42:20;;;;;;;7.72;6.40;;;2.80;99.90;;;;;;5011257;28;20202;-77
2022/01/17 05:44:46;;;;;;;11.23;6.30;;;2.70;99.90;;;;;;5011470;28;20223;-77
2022/01/17 05:47:13;;;;;;;11.82;6.85;;;2.70;99.90;;;;;;5030069;28;20201;-77
2022/01/17 05:49:41;;;;;;;7.80;6.20;;;2.70;99.90;;;;;;5010421;28;20199;-77
2022/01/17 05:52:09;;;;;;;9.05;5.93;;;2.70;99.90;;;;;;5010867;28;20547;-77
2022/01/17 05:54:36;;;;;;;7.00;5.75;;;2.70;99.90;;;;;;5010601;28;20226;-77
2022/01/17 05:57:03;;;;;;;9.02;6.03;;;2.80;99.90;;;;;;5010743;28;20198;-77
2022/01/17 05:59:31;;;;;;;9.68;6.43;;;2.70;99.90;;;;;;5011253;28;20209;-77
2022/01/17 06:01:58;;;;;;;8.55;6.50;;;2.80;99.90;;;;;;5011293;28;20689;-77
2022/01/17 06:04:25;;;;;;;6.35;5.68;;;2.80;99.90;;;;;;5012104;28;20222;-77
2022/01/17 06:06:52;;;;;;;8.65;5.90;;;2.80;99.90;;;;;;5010938;28;20222;-76
2022/01/17 06:09:19;;;;;;;8.90;6.13;;;2.80;99.90;;;;;;5010497;28;20217;-75
2022/01/17 06:11:45;;;;;;;6.95;5.95;;;2.80;99.90;;;;;;5010471;28;20216;-76
2022/01/17 06:14:16;;;;;;;8.20;5.68;;;2.90;99.90;;;;;;5010083;28;20697;-77
2022/01/17 06:16:44;;;;;;;7.50;6.32;;;2.90;99.90;;;;;;5009733;28;20194;-76
2022/01/17 06:19:11;;;;;;;7.57;6.18;;;2.90;99.90;;;;;;5010358;28;20209;-76
2022/01/17 06:21:39;;;;;;;9.93;5.38;;;3.00;99.90;;;;;;5010848;28;20206;-75
2022/01/17 06:24:09;;;;;;;6.53;5.75;;;3.10;99.90;;;;;;5009601;28;20594;-75
2022/01/17 06:26:36;;;;;;;6.70;6.03;;;3.10;99.90;;;;;;5010294;28;20223;-74
2022/01/17 06:29:03;;;;;;;8.35;5.97;;;3.00;99.90;;;;;;5010261;28;20209;-74
2022/01/17 06:31:30;;;;;;;7.82;6.13;;;3.00;99.90;;;;;;5010328;28;20631;-75
2022/01/17 06:33:58;;;;;;;6.78;5.85;;;3.10;99.90;;;;;;5009689;28;20219;-74
2022/01/17 06:36:25;;;;;;;9.45;5.43;;;3.10;99.90;;;;;;5010314;28;20202;-75
2022/01/17 06:38:52;;;;;;;6.90;5.80;;;3.10;99.90;;;;;;5010685;28;20210;-75
2022/01/17 06:41:19;;;;;;;6.68;5.25;;;3.10;99.90;;;;;;5010944;28;20198;-74
2022/01/17 06:43:46;;;;;;;6.07;5.10;;;3.10;99.90;;;;;;5011877;28;20237;-73
2022/01/17 06:46:14;;;;;;;5.60;5.00;;;3.10;99.90;;;;;;5010497;28;20226;-74
2022/01/17 06:48:42;;;;;;;8.40;5.53;;;3.10;99.90;;;;;;5009773;28;20215;-75
2022/01/17 06:51:10;;;;;;;6.88;5.80;;;3.10;99.90;;;;;;5010323;28;20207;-75
2022/01/17 06:53:37;;;;;;;8.50;5.72;;;3.20;99.90;;;;;;5008925;28;20202;-76
2022/01/17 06:56:04;;;;;;;7.45;5.15;;;3.10;99.90;;;;;;5010603;28;20208;-76
2022/01/17 06:58:31;;;;;;;6.22;5.15;;;3.10;99.90;;;;;;5010092;28;20206;-76
2022/01/17 07:00:58;;;;;;;5.40;4.78;;;3.10;99.90;;;;;;5009518;28;20237;-76
2022/01/17 07:03:25;;;;;;;7.43;5.75;;;3.10;99.90;;;;;;5009782;28;20199;-76
2022/01/17 07:05:51;;;;;;;8.30;5.88;;;3.10;99.90;;;;;;5009162;28;20280;-75
2022/01/17 07:08:19;;;;;;;9.25;6.00;;;3.10;99.90;;;;;;5010047;28;20674;-75
2022/01/17 07:10:46;;;;;;;6.65;5.50;;;3.10;99.90;;;;;;5024029;28;20224;-75
2022/01/17 07:13:13;;;;;;;6.35;5.05;;;3.10;99.90;;;;;;5011128;28;20258;-75
2022/01/17 07:15:40;;;;;;;7.75;4.97;;;3.10;99.90;;;;;;5016430;28;20238;-77
2022/01/17 07:18:07;;;;;;;7.82;5.45;;;3.10;99.90;;;;;;5020661;28;20207;-77
2022/01/17 07:20:34;;;;;;;6.80;5.05;;;3.00;99.90;;;;;;5012467;28;20735;-75
2022/01/17 07:23:01;;;;;;;9.25;5.47;;;3.10;99.90;;;;;;5026120;28;20214;-77
2022/01/17 07:25:29;;;;;;;6.82;5.20;;;3.20;99.90;;;;;;5011035;28;20252;-77
2022/01/17 07:27:57;;;;;;;9.60;5.13;;;3.20;99.90;;;;;;5012368;28;20214;-76
2022/01/17 07:30:24;;;;;;;6.18;5.47;;;3.20;99.90;;;;;;5014732;28;20558;-77
2022/01/17 07:32:51;;;;;;;9.20;4.95;;;3.10;99.90;;;;;;5012236;28;20589;-76
2022/01/17 07:35:18;;;;;;;5.65;5.15;;;3.10;99.90;;;;;;5012511;28;20214;-76
2022/01/17 07:37:44;;;;;;;6.47;5.00;;;3.00;99.90;;;;;;5010356;28;20206;-73
2022/01/17 07:40:12;;;;;;;7.28;4.97;;;3.00;99.90;;;;;;5007868;28;20206;-73
2022/01/17 07:42:40;;;;;;;6.13;4.65;;;3.00;99.90;;;;;;5008456;28;20203;-76
2022/01/17 07:45:12;;;;;;;7.20;5.22;;;3.00;99.90;;;;;;5013902;28;20221;-74
2022/01/17 07:47:43;;;;;;;6.43;4.85;;;3.00;99.90;;;;;;5020601;28;20222;-73
2022/01/17 07:50:14;;;;;;;5.72;5.13;;;3.00;99.90;;;;;;5010382;28;20883;-72
2022/01/17 07:52:42;;;;;;;6.25;5.03;;;3.00;99.90;;;;;;5009193;28;20267;-74
2022/01/17 07:55:09;;;;;;;7.35;5.30;;;3.00;99.90;;;;;;5010698;28;20276;-77
2022/01/17 07:57:37;;;;;;;6.63;4.60;;;3.00;99.90;;;;;;5011221;28;20210;-75
2022/01/17 08:00:07;;;;;;;6.20;5.15;;;3.00;99.90;;;;;;5009953;28;20570;-73
2022/01/17 08:02:34;;;;;;;5.72;4.90;;;3.00;99.90;;;;;;5009049;28;20237;-74
2022/01/17 08:05:02;;;;;;;5.03;4.53;;;3.00;99.90;;;;;;5009205;28;20210;-77
2022/01/17 08:07:28;;;;;;;6.13;5.22;;;3.00;99.90;;;;;;5009445;28;20230;-77
2022/01/17 08:09:56;;;;;;;5.13;4.63;;;3.10;99.90;;;;;;5008896;28;20210;-72
2022/01/17 08:12:22;;;;;;;8.20;4.88;;;3.20;99.90;;;;;;5007579;28;20202;-72
2022/01/17 08:14:49;;;;;;;5.50;4.93;;;3.20;99.90;;;;;;5008770;28;20226;-72
2022/01/17 08:17:17;;;;;;;8.05;4.53;;;3.20;99.90;;;;;;5008755;28;20720;-72
2022/01/17 08:19:44;;;;;;;6.30;4.40;;;3.20;99.90;;;;;;5009611;28;21189;-75
2022/01/17 08:22:11;;;;;;;6.13;4.47;;;3.20;99.90;;;;;;5009060;28;20207;-70
2022/01/17 08:24:37;;;;;;;6.78;5.22;;;3.30;99.90;;;;;;5009201;28;20226;-71
2022/01/17 08:27:04;;;;;;;6.43;4.30;;;3.30;99.90;;;;;;5008809;28;20227;-70
2022/01/17 08:29:31;;;;;;;5.80;4.07;;;3.30;99.90;;;;;;5009185;28;20198;-70
2022/01/17 08:32:00;;;;;;;5.65;4.13;;;3.40;99.90;;;;;;5009213;28;20210;-70
2022/01/17 08:34:28;;;;;;;5.78;4.10;;;3.40;99.90;;;;;;5023289;28;20283;-70
2022/01/17 08:36:55;;;;;;;4.85;4.20;;;3.40;99.90;;;;;;5010764;28;20206;-70
2022/01/17 08:39:23;;;;;;;5.97;4.28;;;3.40;99.90;;;;;;5008124;28;20206;-70
2022/01/17 08:41:50;;;;;;;6.05;4.20;;;3.40;99.90;;;;;;5010349;28;20206;-71
2022/01/17 08:44:19;;;;;;;4.78;4.18;;;3.50;99.90;;;;;;5010494;28;20250;-71
2022/01/17 08:46:46;;;;;;;4.85;3.97;;;3.60;99.90;;;;;;5011593;28;20222;-71
2022/01/17 08:49:13;;;;;;;5.50;4.65;;;3.60;99.90;;;;;;5010695;28;20233;-71
2022/01/17 08:51:41;;;;;;;5.57;4.28;;;3.70;99.90;;;;;;5011511;28;20203;-71
2022/01/17 08:54:08;;;;;;;5.40;4.28;;;3.90;99.90;;;;;;5010418;28;20226;-72
2022/01/17 08:56:35;;;;;;;7.63;4.60;;;4.10;99.90;;;;;;5011584;28;20205;-72
2022/01/17 08:59:03;;;;;;;5.82;3.95;;;5.00;99.90;;;;;;5010264;28;20214;-75
2022/01/17 09:01:30;;;;;;;5.22;4.53;;;6.20;99.90;;;;;;5011384;28;20207;-74
2022/01/17 09:03:57;;;;;;;4.20;3.80;;;7.30;99.90;;;;;;5011204;28;20230;-74
2022/01/17 09:06:24;;;;;;;5.50;3.90;;;7.80;99.90;;;;;;5010944;28;20233;-76
2022/01/17 09:08:52;;;;;;;4.78;4.05;;;8.40;99.90;;;;;;5011058;28;20224;-76
2022/01/17 09:11:19;;;;;;;5.40;3.88;;;8.90;99.90;;;;;;5011457;28;20206;-76
2022/01/17 09:13:47;;;;;;;4.88;3.70;;;9.10;99.90;;;;;;5009789;28;20670;-75
2022/01/17 09:16:14;;;;;;;4.18;3.78;;;9.40;99.90;;;;;;5010248;28;20191;-75
2022/01/17 09:18:41;;;;;;;5.25;4.00;;;9.80;99.90;;;;;;5011811;28;20210;-74
2022/01/17 09:21:07;;;;;;;5.03;4.60;;;9.80;99.90;;;;;;5011136;28;20203;-72
2022/01/17 09:23:34;;;;;;;4.18;3.65;;;9.80;99.90;;;;;;5014482;28;20217;-72
2022/01/17 09:26:03;;;;;;;4.38;3.70;;;10.20;99.90;;;;;;5023217;28;20217;-73
2022/01/17 09:28:29;;;;;;;4.47;4.05;;;11.80;99.90;;;;;;5012842;28;20628;-74
2022/01/17 09:30:56;;;;;;;4.10;3.63;;;13.10;99.90;;;;;;5011994;28;20207;-73
2022/01/17 09:33:23;;;;;;;6.55;3.95;;;13.90;99.90;;;;;;5023004;28;20202;-72
2022/01/17 09:35:50;;;;;;;3.97;3.67;;;14.20;99.40;;;;;;5011731;28;20238;-70
2022/01/17 09:38:18;;;;;;;4.10;3.73;;;14.50;98.50;;;;;;5012103;28;20253;-74
2022/01/17 09:40:45;;;;;;;4.55;3.80;;;13.50;98.90;;;;;;5012242;28;20491;-72
2022/01/17 09:43:13;;;;;;;4.00;3.60;;;12.30;99.90;;;;;;5011417;28;20205;-73
2022/01/17 09:45:39;;;;;;;4.45;3.90;;;10.90;99.90;;;;;;5012120;28;20592;-72
2022/01/17 09:48:08;;;;;;;5.30;4.43;;;10.30;99.90;;;;;;5011888;28;20218;-73
2022/01/17 09:50:46;;;;;;;5.05;3.60;;;10.10;99.90;;;;;;5011539;28;20206;-74
2022/01/17 09:53:18;;;;;;;4.00;3.60;;;9.90;99.90;;;;;;5011569;28;20270;-72
2022/01/17 09:55:45;;;;;;;7.70;3.20;;;10.30;99.90;;;;;;5014959;28;20561;-74
2022/01/17 09:58:15;;;;;;;3.63;3.33;;;10.70;99.90;;;;;;5031130;28;20193;-73
2022/01/17 10:00:44;;;;;;;4.40;4.00;;;10.30;99.90;;;;;;5019550;28;20673;-75
2022/01/17 10:03:13;;;;;;;3.92;3.15;;;9.40;99.90;;;;;;5010995;28;20210;-75
2022/01/17 10:05:40;;;;;;;4.65;3.67;;;9.20;99.90;;;;;;5013699;28;20221;-73
2022/01/17 10:08:09;;;;;;;3.58;3.28;;;9.60;99.90;;;;;;5023527;28;20223;-74
2022/01/17 10:10:44;;;;;;;3.50;3.13;;;10.90;99.90;;;;;;5010744;28;20293;-74
2022/01/17 10:13:15;;;;;;;3.38;3.08;;;11.80;99.90;;;;;;5009536;28;20206;-74
2022/01/17 10:15:57;;;;;;;2.90;2.70;;;12.90;99.90;;;;;;5011293;28;20325;-75
2022/01/17 10:18:37;;;;;;;3.20;2.90;;;14.70;99.00;;;;;;5021802;28;20189;-76
2022/01/17 10:21:08;;;;;;;2.97;2.67;;;15.30;98.10;;;;;;5020374;28;20202;-76
2022/01/17 10:26:48;;;;;;;4.37;3.27;;;16.70;96.00;;;;;;5014847;28;20452;-75
2022/01/17 10:35:08;;;;;;;3.77;3.30;;;12.80;98.00;;;;;;5024484;28;20488;-75
2022/01/17 10:37:34;;;;;;;3.55;3.00;;;11.30;99.50;;;;;;5012396;28;20453;-75
2022/01/17 10:40:04;;;;;;;4.07;3.35;;;10.40;99.90;;;;;;5019041;28;20281;-74
2022/01/17 10:42:34;;;;;;;3.22;2.92;;;9.90;99.90;;;;;;5021092;28;20203;-75
2022/01/17 10:45:06;;;;;;;3.80;2.95;;;9.40;99.90;;;;;;5026173;28;20230;-75
2022/01/17 10:47:36;;;;;;;3.35;2.72;;;8.70;99.90;;;;;;5012157;28;20277;-73
2022/01/17 10:50:05;;;;;;;3.63;3.33;;;8.40;99.90;;;;;;5011011;28;20202;-74
2022/01/17 10:52:35;;;;;;;3.63;2.95;;;8.00;99.90;;;;;;5010797;28;20241;-73
2022/01/17 10:55:05;;;;;;;3.75;2.70;;;7.70;99.90;;;;;;5011892;28;20313;-73
2022/01/17 10:57:39;;;;;;;3.92;2.92;;;7.10;99.90;;;;;;5011729;28;20198;-74
2022/01/17 11:00:10;;;;;;;4.05;2.97;;;6.90;99.90;;;;;;5012177;28;20199;-74
2022/01/17 11:02:39;;;;;;;2.35;2.15;;;6.70;99.90;;;;;;5010810;28;20207;-74
2022/01/17 11:05:07;;;;;;;3.25;2.20;;;6.80;99.90;;;;;;5011145;28;20222;-73
2022/01/17 11:07:40;;;;;;;2.45;2.25;;;6.80;99.90;;;;;;5010276;28;20790;-75
2022/01/17 11:10:14;;;;;;;2.25;2.00;;;6.70;99.90;;;;;;5010177;28;20234;-77
2022/01/17 11:12:41;;;;;;;2.92;2.50;;;6.70;99.90;;;;;;5010409;28;20202;-76
2022/01/17 11:15:11;;;;;;;2.15;1.90;;;6.50;99.90;;;;;;5009856;28;20234;-76
2022/01/17 11:17:39;;;;;;;4.20;2.45;;;6.50;99.90;;;;;;5010534;28;20281;-76
2022/01/17 11:20:08;;;;;;;2.97;2.10;;;6.30;99.90;;;;;;5015633;28;20196;-75
2022/01/17 11:22:37;;;;;;;2.30;2.10;;;6.20;99.90;;;;;;5014227;28;20652;-74
2022/01/17 11:25:06;;;;;;;3.20;2.03;;;6.20;99.90;;;;;;5018880;28;20222;-74
2022/01/17 11:27:33;;;;;;;2.30;1.98;;;6.10;99.90;;;;;;5010535;28;20218;-73
2022/01/17 11:30:01;;;;;;;1.80;1.70;;;6.10;99.90;;;;;;5010869;28;20621;-73
2022/01/17 11:32:29;;;;;;;2.47;1.52;;;6.10;99.90;;;;;;5006942;28;20206;-76
2022/01/17 11:34:58;;;;;;;2.10;1.85;;;6.00;99.90;;;;;;5010127;28;20281;-74
2022/01/17 11:37:27;;;;;;;3.28;2.13;;;6.00;99.90;;;;;;5009457;28;20268;-73
2022/01/17 11:39:56;;;;;;;2.40;2.20;;;6.00;99.90;;;;;;5009096;28;20211;-72
2022/01/17 11:42:34;;;;;;;2.92;2.03;;;6.10;99.90;;;;;;5019096;28;20206;-72
2022/01/17 11:45:05;;;;;;;3.42;2.10;;;6.10;99.90;;;;;;5016473;28;20272;-73
2022/01/17 11:47:51;;;;;;;1.85;1.75;;;6.20;99.90;;;;;;5010430;28;20313;-72
2022/01/17 11:50:37;;;;;;;5.57;2.10;;;6.10;99.90;;;;;;5010424;28;20214;-69
2022/01/17 11:53:39;;;;;;;2.30;1.90;;;6.20;99.90;;;;;;5009238;28;20261;-73
2022/01/17 11:56:06;;;;;;;2.10;1.90;;;6.10;99.90;;;;;;5009044;28;20252;-72
2022/01/17 11:58:39;;;;;;;4.88;1.85;;;5.90;99.90;;;;;;5010324;28;20273;-72
2022/01/17 12:01:15;;;;;;;1.98;1.83;;;6.00;99.90;;;;;;5010187;28;20211;-74
2022/01/17 12:03:46;;;;;;;2.05;1.85;;;5.90;99.90;;;;;;5009235;28;20267;-73
2022/01/17 12:06:24;;;;;;;3.20;2.35;;;5.80;99.90;;;;;;5008252;28;20233;-73
2022/01/17 12:09:20;;;;;;;2.05;1.95;;;5.80;99.90;;;;;;5021687;28;20229;-70
2022/01/17 12:11:48;;;;;;;2.30;2.10;;;5.80;99.90;;;;;;5027998;28;20691;-71
2022/01/17 12:14:27;;;;;;;3.25;2.45;;;5.90;99.90;;;;;;5028174;28;20228;-71
2022/01/17 12:16:55;;;;;;;2.40;2.20;;;5.90;99.90;;;;;;5030019;28;20217;-70
2022/01/17 12:19:24;;;;;;;2.88;2.17;;;5.90;99.90;;;;;;5032674;28;20233;-71
2022/01/17 12:22:05;;;;;;;2.35;2.15;;;5.90;99.90;;;;;;5031893;28;20256;-69
2022/01/17 12:24:40;;;;;;;3.08;2.42;;;6.10;99.90;;;;;;5031278;28;20233;-72
2022/01/17 12:27:18;;;;;;;2.70;2.40;;;6.20;99.90;;;;;;5031886;28;20221;-74
2022/01/17 12:29:52;;;;;;;2.50;2.30;;;6.20;99.90;;;;;;5031246;28;20561;-75
2022/01/17 12:32:52;;;;;;;4.38;3.70;;;6.20;99.90;;;;;;5030682;28;20610;-76
2022/01/17 12:35:29;;;;;;;3.30;2.80;;;6.20;99.90;;;;;;5027891;28;20320;-74
2022/01/17 12:38:05;;;;;;;2.97;2.65;;;6.20;99.90;;;;;;5031588;28;20201;-74
2022/01/17 12:40:35;;;;;;;3.97;3.05;;;6.20;99.90;;;;;;5030975;28;20210;-75
2022/01/17 12:43:05;;;;;;;3.65;2.90;;;6.20;99.90;;;;;;5015683;28;20202;-74
2022/01/17 12:45:35;;;;;;;3.40;3.10;;;6.10;99.90;;;;;;5011714;28;20230;-75
2022/01/17 12:48:04;;;;;;;5.32;3.30;;;6.10;99.90;;;;;;5015945;28;20605;-71
2022/01/17 12:50:34;;;;;;;3.53;3.22;;;6.00;99.90;;;;;;5034059;28;20202;-71
2022/01/17 12:53:03;;;;;;;2.90;2.60;;;6.00;99.90;;;;;;5035913;28;20214;-71
2022/01/17 12:55:37;;;;;;;3.05;2.85;;;6.00;99.90;;;;;;5037067;28;20226;-70
2022/01/17 12:58:11;;;;;;;3.20;2.90;;;6.00;99.90;;;;;;5033847;28;20204;-71
2022/01/17 13:00:38;;;;;;;4.13;3.10;;;6.10;99.90;;;;;;5032014;28;20213;-71
2022/01/17 13:03:05;;;;;;;3.13;2.83;;;6.10;99.90;;;;;;5031873;28;20206;-72
2022/01/17 13:05:35;;;;;;;4.03;3.00;;;6.10;99.90;;;;;;5033233;28;20736;-68
2022/01/17 13:08:03;;;;;;;3.40;1.92;;;6.10;99.90;;;;;;5031710;28;20232;-69
2022/01/17 13:10:31;;;;;;;4.25;2.58;;;6.30;99.90;;;;;;5031320;28;20202;-69
2022/01/17 13:12:57;;;;;;;2.38;2.17;;;6.40;99.90;;;;;;5031923;28;20600;-72
2022/01/17 13:15:25;;;;;;;5.35;3.30;;;6.40;99.90;;;;;;5032877;28;20643;-71
2022/01/17 13:17:52;;;;;;;3.28;2.90;;;6.40;99.90;;;;;;5031955;28;20201;-71
2022/01/17 13:20:20;;;;;;;2.42;2.22;;;6.50;99.90;;;;;;5031641;28;20208;-71
2022/01/17 13:22:55;;;;;;;2.45;2.25;;;6.50;99.90;;;;;;5029338;28;20210;-72